Time;durP1;ratioP1;P1;durP2;ratioP2;P2;SDS_P1;SDS_P2;PMS_P1;PMS_P2;Temp;Humidity;BMP_temperature;BMP_pressure;BME280_temperature;BME280_humidity;BME280_pressure;Samples;Min_cycle;Max_cycle;Signal;HPM_P1;HPM_P2
2021/09/22 00:00:26;;;;;;;4.30;1.05;;;;;;;8.39;100.00;99168.78;1722186;82;21891;-76
2021/09/22 00:02:55;;;;;;;1.77;1.15;;;;;;;8.39;100.00;99175.80;1722598;81;21067;-75
2021/09/22 00:05:26;;;;;;;3.75;1.40;;;;;;;8.40;100.00;99170.98;1733516;82;20984;-75
2021/09/22 00:07:57;;;;;;;1.75;1.02;;;;;;;8.41;100.00;99176.23;1722364;82;21543;-75
2021/09/22 00:10:26;;;;;;;1.45;1.10;;;;;;;8.42;100.00;99173.17;1714838;81;20991;-74
2021/09/22 00:12:56;;;;;;;4.60;1.22;;;;;;;8.40;100.00;99174.92;1725009;81;21128;-72
2021/09/22 00:15:28;;;;;;;1.10;1.00;;;;;;;8.40;100.00;99169.23;1746495;81;21474;-74
2021/09/22 00:17:56;;;;;;;2.35;1.15;;;;;;;8.40;100.00;99170.54;1738961;81;21014;-75
2021/09/22 00:20:25;;;;;;;3.35;1.20;;;;;;;8.40;100.00;99167.03;1726567;81;21555;-77
2021/09/22 00:22:56;;;;;;;1.12;1.00;;;;;;;8.40;100.00;99164.41;1731839;81;21023;-77
2021/09/22 00:25:27;;;;;;;1.82;1.12;;;;;;;8.40;100.00;99165.28;1739509;81;21557;-76
2021/09/22 00:27:57;;;;;;;2.37;1.57;;;;;;;8.41;100.00;99164.41;1735076;81;21561;-77
2021/09/22 00:30:26;;;;;;;2.35;1.00;;;;;;;8.44;100.00;99163.54;1709027;82;21050;-76
2021/09/22 00:32:55;;;;;;;5.60;1.30;;;;;;;8.46;100.00;99154.78;1706134;83;21057;-75
2021/09/22 00:35:23;;;;;;;5.72;1.27;;;;;;;8.47;100.00;99159.16;1707355;82;21055;-76
2021/09/22 00:37:54;;;;;;;1.20;1.10;;;;;;;8.47;100.00;99157.84;1707274;83;21215;-76
2021/09/22 00:40:22;;;;;;;1.55;1.22;;;;;;;8.46;100.00;99152.59;1731830;82;20892;-76
2021/09/22 00:42:50;;;;;;;0.98;0.88;;;;;;;8.44;100.00;99153.91;1728497;82;21086;-76
2021/09/22 00:45:18;;;;;;;1.10;1.00;;;;;;;8.45;100.00;99149.09;1720214;81;21530;-77
2021/09/22 00:47:46;;;;;;;1.52;0.80;;;;;;;8.46;100.00;99148.64;1699718;83;21035;-76
2021/09/22 00:50:27;;;;;;;1.27;1.17;;;;;;;8.46;100.00;99136.81;1709836;82;21167;-77
2021/09/22 00:52:59;;;;;;;1.80;1.00;;;;;;;8.48;100.00;99130.69;1714914;82;21516;-75
2021/09/22 00:55:31;;;;;;;1.52;1.20;;;;;;;8.49;100.00;99130.25;1717529;82;21058;-76
2021/09/22 00:58:03;;;;;;;1.32;1.05;;;;;;;8.48;100.00;99125.87;1684516;83;21549;-76
2021/09/22 01:00:37;;;;;;;1.45;1.20;;;;;;;8.48;100.00;99125.43;1711552;82;20947;-76
2021/09/22 01:03:06;;;;;;;2.25;1.07;;;;;;;8.47;100.00;99129.38;1707272;82;22136;-76
2021/09/22 01:05:34;;;;;;;1.55;1.25;;;;;;;8.45;100.00;99124.55;1712425;82;21000;-78
2021/09/22 01:08:05;;;;;;;2.52;1.07;;;;;;;8.45;100.00;99117.54;1726432;81;21402;-77
2021/09/22 01:10:36;;;;;;;1.80;1.10;;;;;;;8.44;100.00;99111.84;1695476;83;21149;-76
2021/09/22 01:13:05;;;;;;;2.33;1.30;;;;;;;8.49;100.00;99114.05;1728770;81;21541;-77
2021/09/22 01:15:37;;;;;;;1.00;1.00;;;;;;;8.53;100.00;99111.45;1746442;81;21109;-76
2021/09/22 01:18:12;;;;;;;1.25;1.05;;;;;;;8.53;100.00;99116.27;1722861;82;21033;-77
2021/09/22 01:20:41;;;;;;;1.30;1.17;;;;;;;8.52;100.00;99118.46;1724228;82;22871;-77
2021/09/22 01:23:11;;;;;;;1.25;1.00;;;;;;;8.50;100.00;99111.85;1714686;82;21553;-77
2021/09/22 01:25:42;;;;;;;2.55;1.20;;;;;;;8.49;100.00;99108.78;1694809;83;21097;-77
2021/09/22 01:28:12;;;;;;;1.42;1.12;;;;;;;8.49;100.00;99115.80;1707935;83;21118;-77
2021/09/22 01:30:44;;;;;;;1.12;1.02;;;;;;;8.47;100.00;99106.59;1725851;81;21487;-77
2021/09/22 01:33:14;;;;;;;3.17;1.25;;;;;;;8.47;100.00;99111.84;1735413;81;21521;-77
2021/09/22 01:35:50;;;;;;;1.52;1.42;;;;;;;8.50;100.00;99110.54;1691910;83;20987;-77
2021/09/22 01:38:26;;;;;;;1.27;1.10;;;;;;;8.52;100.00;99104.00;1708666;81;20939;-76
2021/09/22 01:41:03;;;;;;;3.20;1.15;;;;;;;8.52;100.00;99105.31;1715531;81;21166;-76
2021/09/22 01:43:33;;;;;;;3.60;1.60;;;;;;;8.51;100.00;99102.22;1706317;83;20910;-76
2021/09/22 01:46:06;;;;;;;1.40;1.12;;;;;;;8.50;100.00;99100.02;1711288;82;21077;-77
2021/09/22 01:48:39;;;;;;;1.00;1.00;;;;;;;8.49;100.00;99104.84;1719863;82;21044;-78
2021/09/22 01:51:10;;;;;;;1.62;1.20;;;;;;;8.49;100.00;99101.34;1713302;82;21480;-78
2021/09/22 01:53:41;;;;;;;1.87;1.15;;;;;;;8.46;100.00;99095.63;1701421;83;20940;-78
2021/09/22 01:56:09;;;;;;;1.25;1.00;;;;;;;8.45;100.00;99090.38;1718474;82;22279;-76
2021/09/22 01:58:41;;;;;;;1.20;1.10;;;;;;;8.50;100.00;99085.56;1716124;82;21024;-76
2021/09/22 02:01:17;;;;;;;2.05;1.20;;;;;;;8.53;100.00;99081.22;1713585;82;20984;-74
2021/09/22 02:03:51;;;;;;;2.22;1.20;;;;;;;8.53;100.00;99086.47;1715754;82;21751;-73
2021/09/22 02:06:40;;;;;;;1.40;1.22;;;;;;;8.51;100.00;99093.92;1722981;82;21734;-73
2021/09/22 02:09:11;;;;;;;1.60;1.12;;;;;;;8.49;100.00;99089.50;1714802;82;21514;-74
2021/09/22 02:11:40;;;;;;;5.08;1.20;;;;;;;8.48;100.00;99089.06;1716437;82;20957;-74
2021/09/22 02:14:10;;;;;;;1.70;1.20;;;;;;;8.45;100.00;99082.05;1724137;82;21494;-75
2021/09/22 02:16:48;;;;;;;1.10;1.00;;;;;;;8.44;100.00;99086.87;1716354;82;21614;-74
2021/09/22 02:19:28;;;;;;;2.02;1.50;;;;;;;8.47;100.00;99083.37;1716297;82;23187;-75
2021/09/22 02:22:18;;;;;;;1.60;1.40;;;;;;;8.47;100.00;99085.56;1710608;81;21526;-74
2021/09/22 02:24:55;;;;;;;1.65;1.40;;;;;;;8.45;100.00;99092.56;1709178;83;20965;-74
2021/09/22 02:27:25;;;;;;;1.80;1.30;;;;;;;8.47;100.00;99092.57;1686678;82;20998;-74
2021/09/22 02:29:55;;;;;;;1.63;1.37;;;;;;;8.45;100.00;99096.95;1714803;82;21413;-75
2021/09/22 02:32:23;;;;;;;1.30;1.20;;;;;;;8.43;100.00;99090.38;1687487;83;21166;-75
2021/09/22 02:34:52;;;;;;;2.75;1.30;;;;;;;8.44;100.00;99093.87;1711610;82;21442;-76
2021/09/22 02:37:22;;;;;;;2.30;1.42;;;;;;;8.46;100.00;99097.39;1706291;82;21051;-75
2021/09/22 02:39:55;;;;;;;2.45;1.35;;;;;;;8.50;100.00;99088.19;1704008;82;21615;-77
2021/09/22 02:42:27;;;;;;;1.42;1.20;;;;;;;8.53;100.00;99087.35;1722771;82;21072;-71
2021/09/22 02:44:58;;;;;;;22.98;3.67;;;;;;;8.54;100.00;99089.10;1708248;82;21600;-72
2021/09/22 02:47:28;;;;;;;2.80;1.40;;;;;;;8.54;100.00;99091.73;1701074;82;21507;-71
2021/09/22 02:49:56;;;;;;;10.00;1.75;;;;;;;8.54;100.00;99089.10;1700513;84;20916;-70
2021/09/22 02:52:27;;;;;;;1.40;1.30;;;;;;;8.54;100.00;99087.79;1743736;81;21453;-68
2021/09/22 02:54:57;;;;;;;3.90;1.45;;;;;;;8.52;100.00;99084.28;1746099;81;21894;-68
2021/09/22 02:57:30;;;;;;;2.20;1.30;;;;;;;8.51;100.00;99087.34;1722218;81;21547;-69
2021/09/22 02:59:58;;;;;;;3.00;1.75;;;;;;;8.54;100.00;99092.17;1707228;81;21545;-69
2021/09/22 03:02:26;;;;;;;1.90;1.20;;;;;;;8.57;100.00;99091.73;1738461;81;20896;-69
2021/09/22 03:04:56;;;;;;;2.22;1.30;;;;;;;8.57;100.00;99089.55;1713667;82;20943;-68
2021/09/22 03:07:24;;;;;;;3.05;1.50;;;;;;;8.56;100.00;99082.53;1750151;80;21067;-68
2021/09/22 03:09:54;;;;;;;1.60;1.47;;;;;;;8.56;100.00;99079.91;1764244;80;21676;-68
2021/09/22 03:12:24;;;;;;;4.90;1.50;;;;;;;8.56;100.00;99082.53;1768348;80;21035;-68
2021/09/22 03:14:54;;;;;;;2.30;1.40;;;;;;;8.55;100.00;99083.41;1756293;80;21550;-68
2021/09/22 03:17:27;;;;;;;;;;;;;;;8.54;100.00;99081.66;1774268;80;21463;-69
2021/09/22 03:19:59;;;;;;;1.70;1.32;;;;;;;8.54;100.00;99078.59;1761858;80;20426;-69
2021/09/22 03:22:34;;;;;;;7.25;1.45;;;;;;;8.57;100.00;99079.03;1755646;80;21524;-69
2021/09/22 03:25:10;;;;;;;45.63;4.30;;;;;;;8.57;100.00;99075.09;1753264;80;21534;-67
2021/09/22 03:27:42;;;;;;;3.27;1.37;;;;;;;8.55;100.00;99068.95;1770372;80;20999;-66
2021/09/22 03:30:12;;;;;;;4.60;1.52;;;;;;;8.55;100.00;99071.58;1771793;80;20991;-64
2021/09/22 03:32:44;;;;;;;2.65;1.42;;;;;;;8.55;100.00;99066.32;1706220;82;21407;-68
2021/09/22 03:35:14;;;;;;;41.45;4.00;;;;;;;8.54;100.00;99063.25;1717840;81;21454;-66
2021/09/22 03:37:44;;;;;;;8.70;2.00;;;;;;;8.54;100.00;99069.39;1732328;82;20937;-67
2021/09/22 03:40:13;;;;;;;1.75;1.20;;;;;;;8.57;100.00;99065.45;1743002;80;21039;-69
2021/09/22 03:42:42;;;;;;;3.55;1.40;;;;;;;8.61;100.00;99071.14;1734450;81;21431;-70
2021/09/22 03:45:13;;;;;;;3.92;1.60;;;;;;;8.64;100.00;99068.52;1740473;80;20844;-74
2021/09/22 03:47:42;;;;;;;2.00;1.80;;;;;;;8.64;100.00;99068.95;1738927;81;21414;-71
2021/09/22 03:50:11;;;;;;;2.27;1.82;;;;;;;8.63;100.00;99065.89;1719560;81;21032;-70
2021/09/22 03:52:47;;;;;;;5.83;2.10;;;;;;;8.62;100.00;99069.39;1720059;81;21004;-70
2021/09/22 03:55:16;;;;;;;2.10;1.50;;;;;;;8.60;100.00;99065.45;1735511;80;21520;-70
2021/09/22 03:57:45;;;;;;;1.87;1.57;;;;;;;8.58;100.00;99062.38;1754955;80;20935;-70
2021/09/22 04:00:15;;;;;;;2.65;1.50;;;;;;;8.57;100.00;99056.24;1744869;80;21162;-71
2021/09/22 04:02:44;;;;;;;1.65;1.30;;;;;;;8.61;100.00;99057.13;1730537;81;21132;-65
2021/09/22 04:05:12;;;;;;;1.50;1.40;;;;;;;8.62;100.00;99054.92;1764625;80;21036;-69
2021/09/22 04:07:40;;;;;;;1.42;1.27;;;;;;;8.62;100.00;99050.98;1752562;80;20904;-70
2021/09/22 04:10:10;;;;;;;1.45;1.35;;;;;;;8.63;100.00;99046.16;1741946;80;21414;-60
2021/09/22 04:12:39;;;;;;;1.67;1.42;;;;;;;8.63;100.00;99045.72;1714341;80;21814;-66
2021/09/22 04:15:11;;;;;;;2.22;1.75;;;;;;;8.65;100.00;99045.72;1752361;80;20975;-69
2021/09/22 04:17:39;;;;;;;2.60;1.77;;;;;;;8.64;100.00;99043.53;1748994;80;21014;-67
2021/09/22 04:20:09;;;;;;;2.02;1.62;;;;;;;8.65;100.00;99045.28;1750200;80;21510;-68
2021/09/22 04:22:39;;;;;;;2.40;1.67;;;;;;;8.70;100.00;99051.86;1743150;80;20996;-68
2021/09/22 04:25:10;;;;;;;2.60;1.70;;;;;;;8.72;100.00;99052.30;1739575;80;21092;-68
2021/09/22 04:27:40;;;;;;;2.08;1.75;;;;;;;8.73;100.00;99042.66;1742680;80;21419;-68
2021/09/22 04:30:14;;;;;;;7.03;3.83;;;;;;;8.74;100.00;99043.09;1752477;80;20983;-69
2021/09/22 04:33:02;;;;;;;9.05;5.25;;;;;;;8.75;100.00;99036.95;1765117;80;21554;-71
2021/09/22 04:35:52;;;;;;;5.53;3.55;;;;;;;8.73;100.00;99038.70;1752296;80;21327;-71
2021/09/22 04:38:39;;;;;;;15.43;7.15;;;;;;;8.72;100.00;99034.33;1774036;80;21171;-71
2021/09/22 04:41:25;;;;;;;9.43;4.22;;;;;;;8.72;100.00;99031.26;1731895;80;20912;-72
2021/09/22 04:44:12;;;;;;;9.13;4.40;;;;;;;8.77;100.00;99037.83;1676127;83;21538;-71
2021/09/22 04:47:00;;;;;;;5.12;2.60;;;;;;;8.79;100.00;99034.31;1738961;80;21014;-71
2021/09/22 04:49:47;;;;;;;3.83;2.27;;;;;;;8.79;100.00;99039.58;1716963;80;21447;-70
2021/09/22 04:52:33;;;;;;;2.33;1.57;;;;;;;8.78;100.00;99039.58;1746942;80;21584;-72
2021/09/22 04:55:19;;;;;;;2.98;1.77;;;;;;;8.76;100.00;99042.21;1745847;80;21016;-72
2021/09/22 04:58:05;;;;;;;4.53;3.50;;;;;;;8.74;100.00;99042.66;1737844;80;21028;-72
2021/09/22 05:00:57;;;;;;;6.75;3.72;;;;;;;8.73;100.00;99043.97;1711908;81;21577;-73
2021/09/22 05:03:47;;;;;;;7.03;3.02;;;;;;;8.75;100.00;99040.45;1736409;81;21525;-73
2021/09/22 05:06:34;;;;;;;5.25;3.27;;;;;;;8.79;100.00;99040.02;1749765;80;21572;-73
2021/09/22 05:09:21;;;;;;;5.58;3.50;;;;;;;8.80;100.00;99041.33;1730811;81;20983;-71
2021/09/22 05:12:11;;;;;;;5.03;3.10;;;;;;;8.80;100.00;99043.09;1733795;81;21601;-71
2021/09/22 05:14:58;;;;;;;7.00;3.47;;;;;;;8.79;100.00;99032.13;1740223;80;20998;-71
2021/09/22 05:17:43;;;;;;;4.75;2.77;;;;;;;8.78;100.00;99033.88;1716542;82;21459;-72
2021/09/22 05:20:31;;;;;;;3.52;2.33;;;;;;;8.78;100.00;99035.20;1732241;80;20972;-71
2021/09/22 05:23:20;;;;;;;3.80;2.65;;;;;;;8.80;100.00;99036.52;1738235;81;21441;-71
2021/09/22 05:26:08;;;;;;;3.20;2.40;;;;;;;8.83;100.00;99030.80;1752336;80;21577;-71
2021/09/22 05:28:55;;;;;;;5.95;3.25;;;;;;;8.86;100.00;99035.63;1735937;80;21432;-71
2021/09/22 05:31:43;;;;;;;8.23;5.03;;;;;;;8.86;100.00;99039.57;1743161;80;20975;-71
2021/09/22 05:34:29;;;;;;;6.25;4.03;;;;;;;8.84;100.00;99042.20;1742902;80;21822;-70
2021/09/22 05:37:17;;;;;;;4.22;2.77;;;;;;;8.83;100.00;99040.45;1733827;81;20916;-71
2021/09/22 05:40:06;;;;;;;3.62;2.20;;;;;;;8.82;100.00;99043.96;1717885;82;21609;-71
2021/09/22 05:42:53;;;;;;;4.67;2.37;;;;;;;8.83;100.00;99043.95;1752572;80;20932;-72
2021/09/22 05:45:41;;;;;;;3.25;2.12;;;;;;;8.87;100.00;99036.06;1746794;80;21550;-70
2021/09/22 05:48:27;;;;;;;5.17;2.00;;;;;;;8.88;100.00;99040.01;1732309;82;21574;-71
2021/09/22 05:51:14;;;;;;;2.10;1.90;;;;;;;8.88;100.00;99038.69;1729473;82;20892;-70
2021/09/22 05:54:02;;;;;;;2.75;2.10;;;;;;;8.88;100.00;99026.86;1718962;82;20885;-71
2021/09/22 05:56:51;;;;;;;2.75;2.30;;;;;;;8.89;100.00;99025.10;1718372;82;20987;-70
2021/09/22 05:59:40;;;;;;;4.42;1.95;;;;;;;8.89;100.00;99026.41;1732743;82;21555;-70
2021/09/22 06:02:27;;;;;;;2.47;1.98;;;;;;;8.90;100.00;99028.17;1709325;82;21985;-71
2021/09/22 06:05:13;;;;;;;2.33;2.12;;;;;;;8.94;100.00;99028.60;1721290;82;20856;-72
2021/09/22 06:08:00;;;;;;;3.42;2.10;;;;;;;8.95;100.00;99029.03;1722552;82;20952;-71
2021/09/22 06:10:44;;;;;;;3.33;2.55;;;;;;;8.97;100.00;99025.52;1725052;82;20984;-71
2021/09/22 06:13:15;;;;;;;6.25;4.17;;;;;;;8.97;100.00;99028.16;1731787;82;20889;-71
2021/09/22 06:15:44;;;;;;;7.75;4.97;;;;;;;8.98;100.00;99027.27;1711845;82;21162;-70
2021/09/22 06:18:13;;;;;;;3.92;3.45;;;;;;;9.00;100.00;99029.50;1731891;82;20861;-71
2021/09/22 06:20:41;;;;;;;3.72;2.85;;;;;;;9.02;100.00;99024.23;1732087;82;21095;-71
2021/09/22 06:27:20;;;;;;;6.20;3.42;;;;;;;9.10;100.00;99021.14;1725639;82;20928;-73
2021/09/22 06:29:50;;;;;;;;;;;;;;;9.11;100.00;99022.89;1719022;82;21113;-73
2021/09/22 06:32:19;;;;;;;3.40;2.98;;;;;;;9.12;100.00;99025.52;1721169;82;20113;-72
2021/09/22 06:35:07;;;;;;;3.72;2.35;;;;;;;9.14;100.00;99030.78;1727239;82;21395;-72
2021/09/22 06:37:48;;;;;;;2.87;2.20;;;;;;;9.13;100.00;99032.54;1713072;82;21020;-72
2021/09/22 06:40:18;;;;;;;3.42;2.22;;;;;;;9.15;100.00;99032.09;1732569;82;20992;-73
2021/09/22 06:42:47;;;;;;;4.72;2.27;;;;;;;9.20;100.00;99028.13;1654002;85;21440;-71
2021/09/22 06:45:16;;;;;;;3.67;2.30;;;;;;;9.22;100.00;99036.91;1728540;82;21046;-72
2021/09/22 06:47:48;;;;;;;4.33;2.10;;;;;;;9.23;100.00;99037.34;1708005;82;20900;-71
2021/09/22 06:50:15;;;;;;;2.52;2.33;;;;;;;9.27;100.00;99038.20;1725613;82;20988;-70
2021/09/22 06:52:46;;;;;;;2.20;2.00;;;;;;;9.28;100.00;99038.64;1715476;82;20911;-71
2021/09/22 06:55:14;;;;;;;4.20;2.30;;;;;;;9.29;100.00;99038.64;1732696;82;21150;-70
2021/09/22 06:57:43;;;;;;;11.80;6.75;;;;;;;9.30;100.00;99036.44;1712266;82;20980;-70
2021/09/22 07:00:14;;;;;;;10.58;9.48;;;;;;;9.31;100.00;99036.00;1732392;82;21526;-71
2021/09/22 07:02:42;;;;;;;6.05;5.45;;;;;;;9.32;100.00;99034.67;1732664;82;21676;-71
2021/09/22 07:05:12;;;;;;;12.23;7.62;;;;;;;9.36;100.00;99037.73;1711383;82;20931;-72
2021/09/22 07:07:46;;;;;;;38.40;20.05;;;;;;;9.40;100.00;99037.28;1708525;82;21648;-72
2021/09/22 07:10:12;;;;;;;27.45;18.20;;;;;;;9.41;100.00;99039.91;1715955;82;20989;-72
2021/09/22 07:12:40;;;;;;;13.83;10.03;;;;;;;9.43;100.00;99037.27;1708219;82;21746;-72
2021/09/22 07:15:10;;;;;;;8.68;6.40;;;;;;;9.42;100.00;99040.34;1724262;82;20960;-73
2021/09/22 07:17:39;;;;;;;7.28;6.00;;;;;;;9.44;100.00;99035.95;1719396;82;20994;-73
2021/09/22 07:20:10;;;;;;;8.30;5.95;;;;;;;9.45;100.00;99033.75;1712069;82;21564;-64
2021/09/22 07:22:39;;;;;;;23.70;13.98;;;;;;;9.48;100.00;99028.95;1721666;81;20984;-72
2021/09/22 07:25:17;;;;;;;24.07;14.68;;;;;;;9.49;100.00;99034.66;1721322;82;21477;-72
2021/09/22 07:27:40;;;;;;;15.63;11.28;;;;;;;9.54;100.00;99039.91;1714058;82;21026;-72
2021/09/22 07:30:09;;;;;;;12.40;9.63;;;;;;;9.57;100.00;99040.77;1710740;82;21022;-72
2021/09/22 07:32:40;;;;;;;8.83;6.20;;;;;;;9.61;100.00;99043.82;1720712;82;21992;-72
2021/09/22 07:35:09;;;;;;;3.70;3.22;;;;;;;9.63;100.00;99043.81;1732421;82;21495;-72
2021/09/22 07:37:39;;;;;;;4.67;2.70;;;;;;;9.65;100.00;99044.69;1721003;82;21494;-72
2021/09/22 07:40:09;;;;;;;4.42;2.70;;;;;;;9.65;100.00;99035.02;1720281;82;21007;-71
2021/09/22 07:42:39;;;;;;;4.20;2.60;;;;;;;9.67;100.00;99037.20;1720135;82;21506;-72
2021/09/22 07:45:09;;;;;;;5.20;3.10;;;;;;;9.69;100.00;99039.39;1716292;82;21246;-71
2021/09/22 07:47:38;;;;;;;3.12;2.42;;;;;;;9.73;100.00;99040.26;1718032;82;20976;-71
2021/09/22 07:50:08;;;;;;;4.17;2.27;;;;;;;9.75;100.00;99040.69;1727458;82;20961;-71
2021/09/22 07:52:38;;;;;;;4.53;2.60;;;;;;;9.81;100.00;99039.78;1728429;82;21146;-71
2021/09/22 07:55:09;;;;;;;5.87;2.70;;;;;;;9.87;100.00;99042.38;1724315;82;20865;-71
2021/09/22 07:57:39;;;;;;;5.05;3.20;;;;;;;9.91;100.00;99053.34;1732287;82;21542;-71
2021/09/22 08:00:09;;;;;;;6.33;2.87;;;;;;;9.92;100.00;99047.19;1724710;82;21507;-72
2021/09/22 08:02:41;;;;;;;2.83;2.27;;;;;;;9.93;100.00;99046.33;1732497;82;21205;-70
2021/09/22 08:05:10;;;;;;;4.22;2.40;;;;;;;9.94;100.00;99045.45;1724768;82;21043;-72
2021/09/22 08:07:59;;;;;;;10.93;2.70;;;;;;;9.97;100.00;99044.56;1732503;82;20980;-72
2021/09/22 08:10:29;;;;;;;3.60;2.27;;;;;;;9.99;100.00;99047.62;1665253;84;20864;-72
2021/09/22 08:12:59;;;;;;;4.40;1.92;;;;;;;10.02;100.00;99042.33;1643955;85;21760;-73
2021/09/22 08:15:29;;;;;;;4.62;2.27;;;;;;;10.05;100.00;99039.67;1645868;85;21024;-72
2021/09/22 08:17:57;;;;;;;3.25;2.40;;;;;;;10.09;100.00;99042.73;1651858;86;21032;-72
2021/09/22 08:20:26;;;;;;;5.40;2.27;;;;;;;10.13;100.00;99040.95;1646593;86;21423;-72
2021/09/22 08:22:55;;;;;;;4.17;2.08;;;;;;;10.19;100.00;99039.59;1643677;86;21087;-72
2021/09/22 08:25:25;;;;;;;9.90;2.75;;;;;;;10.27;100.00;99036.94;1644257;86;21503;-72
2021/09/22 08:27:53;;;;;;;3.25;2.30;;;;;;;10.36;100.00;99030.28;1639085;86;21611;-71
2021/09/22 08:30:23;;;;;;;3.45;2.50;;;;;;;10.43;100.00;99028.06;1650405;86;21574;-72
2021/09/22 08:32:51;;;;;;;3.52;2.47;;;;;;;10.48;100.00;99024.95;1629603;86;21070;-72
2021/09/22 08:35:18;;;;;;;9.10;3.60;;;;;;;10.55;100.00;99028.41;1640363;86;21826;-72
2021/09/22 08:37:46;;;;;;;4.10;2.80;;;;;;;10.61;100.00;99021.32;1629083;86;20913;-64
2021/09/22 08:40:14;;;;;;;4.15;2.50;;;;;;;10.66;100.00;99023.47;1642200;86;21063;-63
2021/09/22 08:46:41;;;;;;;4.15;2.33;;;;;;;10.79;100.00;99016.77;1641053;86;21504;-65
2021/09/22 08:49:09;;;;;;;4.70;2.52;;;;;;;10.86;100.00;99012.73;1636746;86;21186;-63
2021/09/22 08:51:39;;;;;;;3.95;2.47;;;;;;;10.93;100.00;99013.59;1648921;86;20968;-63
2021/09/22 08:54:09;;;;;;;3.27;2.47;;;;;;;10.97;100.00;99010.02;1649272;86;21057;-64
2021/09/22 08:56:39;;;;;;;4.70;2.33;;;;;;;11.08;100.00;99009.91;1650891;86;20992;-67
2021/09/22 08:59:09;;;;;;;3.08;2.20;;;;;;;11.16;100.00;99005.42;1629949;86;20928;-70
2021/09/22 09:01:36;;;;;;;2.55;2.00;;;;;;;11.25;100.00;99002.23;1653184;86;21158;-70
2021/09/22 09:04:19;;;;;;;3.60;2.00;;;;;;;11.35;100.00;99000.36;1634968;86;21000;-71
2021/09/22 09:06:55;;;;;;;3.98;2.10;;;;;;;11.45;100.00;98999.39;1635649;86;21585;-66
2021/09/22 09:09:36;;;;;;;3.85;2.00;;;;;;;11.52;100.00;98993.14;1639118;86;21028;-66
2021/09/22 09:12:18;;;;;;;2.95;2.17;;;;;;;11.60;100.00;98994.37;1649312;86;21586;-66
2021/09/22 09:15:02;;;;;;;;;;;;;;;11.64;100.00;98988.15;1633473;86;21598;-67
2021/09/22 09:17:46;;;;;;;2.98;1.98;;;;;;;11.68;100.00;98987.22;1654677;86;20437;-66
2021/09/22 09:20:23;;;;;;;3.12;2.27;;;;;;;11.71;100.00;98992.45;1650268;86;27147;-72
2021/09/22 09:23:07;;;;;;;5.85;3.40;;;;;;;11.73;100.00;98989.80;1653844;86;21535;-72
2021/09/22 09:25:42;;;;;;;3.02;2.72;;;;;;;11.75;100.00;98991.52;1656596;86;21118;-67
2021/09/22 09:28:20;;;;;;;3.02;2.50;;;;;;;11.77;100.00;98987.09;1650973;86;21159;-72
2021/09/22 09:30:51;;;;;;;2.85;2.10;;;;;;;11.79;100.00;98985.33;1637301;86;20913;-72
2021/09/22 09:33:56;;;;;;;2.40;2.15;;;;;;;11.81;100.00;98984.87;1651546;86;21622;-71
2021/09/22 09:36:47;;;;;;;3.33;2.42;;;;;;;11.84;100.00;98978.25;1650164;86;21562;-74
2021/09/22 09:39:24;;;;;;;3.37;2.40;;;;;;;11.88;100.00;98973.34;1635946;86;20909;-74
2021/09/22 09:41:57;;;;;;;3.40;2.72;;;;;;;11.95;100.00;98972.81;1655080;86;21760;-75
2021/09/22 09:44:31;;;;;;;8.78;2.37;;;;;;;12.00;100.00;98969.65;1630047;86;20968;-75
2021/09/22 09:47:08;;;;;;;4.20;2.62;;;;;;;12.05;100.00;98963.84;1626859;86;21091;-75
2021/09/22 09:49:37;;;;;;;6.10;2.70;;;;;;;12.11;100.00;98958.91;1647358;86;20983;-77
2021/09/22 09:52:07;;;;;;;4.97;2.20;;;;;;;12.17;100.00;98949.56;1637431;86;21025;-73
2021/09/22 09:54:36;;;;;;;2.90;2.60;;;;;;;12.21;100.00;98952.13;1654557;86;21101;-75
2021/09/22 09:57:18;;;;;;;3.42;2.60;;;;;;;12.26;100.00;98945.45;1654962;86;21069;-74
2021/09/22 10:00:25;;;;;;;3.62;2.37;;;;;;;12.27;100.00;98940.13;1649533;86;21123;-75
2021/09/22 10:02:55;;;;;;;48.70;20.85;;;;;;;12.27;100.00;98942.78;1602620;86;21591;-74
2021/09/22 10:05:25;;;;;;;14.25;7.10;;;;;;;12.24;100.00;98940.18;1627753;86;21059;-75
2021/09/22 10:07:55;;;;;;;33.58;16.65;;;;;;;12.19;100.00;98942.03;1634090;86;21165;-74
2021/09/22 10:10:29;;;;;;;11.85;7.03;;;;;;;12.18;100.00;98940.73;1642101;86;21543;-74
2021/09/22 10:12:56;;;;;;;5.87;3.87;;;;;;;12.17;100.00;98941.18;1645714;86;21072;-74
2021/09/22 10:15:27;;;;;;;9.13;4.20;;;;;;;12.17;100.00;98938.53;1618649;86;21119;-76
2021/09/22 10:17:58;;;;;;;3.57;2.70;;;;;;;12.17;100.00;98937.66;1640866;86;20869;-77
2021/09/22 10:20:29;;;;;;;7.50;2.70;;;;;;;12.17;100.00;98942.95;1637106;86;22000;-76
2021/09/22 10:22:59;;;;;;;5.97;2.20;;;;;;;12.18;100.00;98946.02;1654902;86;20945;-76
2021/09/22 10:25:30;;;;;;;3.72;2.75;;;;;;;12.18;100.00;98946.02;1654971;86;21009;-74
2021/09/22 10:27:59;;;;;;;4.45;2.27;;;;;;;12.18;100.00;98931.48;1655064;86;21504;-73
2021/09/22 10:30:41;;;;;;;3.67;2.47;;;;;;;12.17;100.00;98929.73;1653705;86;20969;-74
2021/09/22 10:33:36;;;;;;;3.70;2.60;;;;;;;12.17;100.00;98925.77;1685137;83;21258;-73
2021/09/22 10:36:06;;;;;;;3.58;2.62;;;;;;;12.18;100.00;98928.38;1716079;82;20986;-75
2021/09/22 10:38:45;;;;;;;6.05;2.35;;;;;;;12.22;100.00;98926.56;1691955;83;21524;-75
2021/09/22 10:41:24;;;;;;;4.35;2.60;;;;;;;12.25;100.00;98930.03;1706156;83;21048;-74
2021/09/22 10:43:56;;;;;;;9.40;6.33;;;;;;;12.28;100.00;98930.42;1698174;83;21426;-74
2021/09/22 10:46:25;;;;;;;10.55;7.25;;;;;;;12.28;100.00;98924.69;1706356;82;21134;-75
2021/09/22 10:49:01;;;;;;;10.45;7.00;;;;;;;12.26;100.00;98933.55;1678616;83;21022;-76
2021/09/22 10:51:44;;;;;;;23.67;12.78;;;;;;;12.24;100.00;98924.77;1700137;83;20871;-75
2021/09/22 10:54:19;;;;;;;14.83;7.45;;;;;;;12.19;100.00;98925.29;1666804;83;20921;-74
2021/09/22 10:56:54;;;;;;;7.00;4.45;;;;;;;12.10;100.00;98932.92;1695874;83;21013;-75
2021/09/22 10:59:37;;;;;;;9.63;3.87;;;;;;;12.06;100.00;98917.13;1701458;83;22400;-75
2021/09/22 11:02:10;;;;;;;5.28;3.22;;;;;;;12.03;100.00;98918.50;1693450;83;21080;-75
2021/09/22 11:05:07;;;;;;;7.75;4.03;;;;;;;12.04;100.00;98904.38;1704513;83;21013;-75
2021/09/22 11:08:08;;;;;;;15.50;9.05;;;;;;;12.09;100.00;98907.38;1705824;83;20958;-74
2021/09/22 11:10:46;;;;;;;;;;;;;;;12.17;100.00;98902.84;1704062;82;21145;-75
2021/09/22 11:13:28;;;;;;;10.70;6.55;;;;;;;12.23;100.00;98904.50;1699500;83;21149;-75
2021/09/22 11:16:16;;;;;;;19.65;13.48;;;;;;;12.26;100.00;98902.69;1701531;83;21441;-75
2021/09/22 11:18:51;;;;;;;10.50;8.83;;;;;;;12.30;100.00;98900.89;1693431;83;21627;-75
2021/09/22 11:21:22;;;;;;;6.50;4.78;;;;;;;12.33;100.00;98892.91;1712395;83;21447;-74
2021/09/22 11:23:53;;;;;;;5.22;4.08;;;;;;;12.37;100.00;98897.69;1709506;83;20970;-74
2021/09/22 11:26:24;;;;;;;4.05;2.90;;;;;;;12.36;100.00;98892.84;1686850;84;21513;-75
2021/09/22 11:28:52;;;;;;;4.95;2.90;;;;;;;12.37;100.00;98897.23;1710204;83;20926;-75
2021/09/22 11:31:22;;;;;;;3.92;2.75;;;;;;;12.36;100.00;98894.63;1702530;83;21006;-75
2021/09/22 11:33:57;;;;;;;3.25;2.62;;;;;;;12.35;100.00;98890.23;1700003;83;21462;-74
2021/09/22 11:36:28;;;;;;;3.80;3.12;;;;;;;12.28;100.00;98888.98;1703187;83;21010;-75
2021/09/22 11:38:58;;;;;;;3.83;3.25;;;;;;;12.21;100.00;98889.11;1711088;83;21211;-74
2021/09/22 11:41:31;;;;;;;4.10;2.85;;;;;;;12.13;100.00;98894.98;1712538;83;20939;-74
2021/09/22 11:44:07;;;;;;;5.50;3.95;;;;;;;12.07;100.00;98892.44;1699422;82;21003;-74
2021/09/22 11:46:35;;;;;;;4.53;3.83;;;;;;;11.95;100.00;98905.41;1691623;83;21592;-74
2021/09/22 11:49:04;;;;;;;4.87;3.47;;;;;;;11.84;100.00;98900.73;1701646;83;21452;-74
2021/09/22 11:51:34;;;;;;;5.37;3.33;;;;;;;11.77;100.00;98906.94;1709526;83;20937;-74
2021/09/22 11:54:02;;;;;;;5.12;3.20;;;;;;;11.71;100.00;98899.10;1719025;82;21021;-74
2021/09/22 11:56:35;;;;;;;7.10;3.70;;;;;;;11.70;100.00;98894.27;1711436;83;20911;-74
2021/09/22 11:59:06;;;;;;;4.42;3.80;;;;;;;11.70;100.00;98895.59;1701475;83;20967;-74
2021/09/22 12:01:34;;;;;;;4.67;3.45;;;;;;;11.71;100.00;98898.66;1666503;83;20949;-75
2021/09/22 12:04:05;;;;;;;5.22;4.10;;;;;;;11.73;100.00;98894.22;1685479;83;21771;-75
2021/09/22 12:06:34;;;;;;;4.30;3.80;;;;;;;11.78;100.00;98894.19;1695826;83;20949;-73
2021/09/22 12:09:04;;;;;;;4.97;4.47;;;;;;;11.80;100.00;98893.27;1693065;83;21006;-75
2021/09/22 12:11:35;;;;;;;7.40;5.03;;;;;;;11.82;100.00;98898.08;1697242;83;21091;-75